Time;durP1;ratioP1;P1;durP2;ratioP2;P2;SDS_P1;SDS_P2;PMS_P1;PMS_P2;Temp;Humidity;BMP_temperature;BMP_pressure;BME280_temperature;BME280_humidity;BME280_pressure;Samples;Min_cycle;Max_cycle;Signal;HPM_P1;HPM_P2
2023/01/23 00:00:26;;;;;;;14.52;7.53;;;2.90;99.90;;;;;;5049387;28;20594;-69
2023/01/23 00:02:51;;;;;;;16.55;7.35;;;2.90;99.90;;;;;;5051124;28;20037;-69
2023/01/23 00:05:17;;;;;;;14.45;7.20;;;2.90;99.90;;;;;;5056974;28;20607;-69
2023/01/23 00:07:43;;;;;;;16.85;7.35;;;2.90;99.90;;;;;;5071081;28;20040;-69
2023/01/23 00:10:09;;;;;;;13.90;7.15;;;2.90;99.90;;;;;;5070975;28;20050;-69
2023/01/23 00:12:35;;;;;;;12.80;6.57;;;2.90;99.90;;;;;;5069536;28;20412;-69
2023/01/23 00:15:01;;;;;;;11.68;6.57;;;2.80;99.90;;;;;;5070150;28;20075;-69
2023/01/23 00:17:26;;;;;;;10.27;6.80;;;2.80;99.90;;;;;;5070494;28;20086;-69
2023/01/23 00:19:53;;;;;;;16.98;6.97;;;2.80;99.90;;;;;;5071026;28;20028;-69
2023/01/23 00:22:19;;;;;;;13.52;6.93;;;2.80;99.90;;;;;;5070765;28;20044;-69
2023/01/23 00:24:44;;;;;;;14.48;7.38;;;2.80;99.90;;;;;;5069900;28;20406;-69
2023/01/23 00:27:10;;;;;;;16.13;7.53;;;2.80;99.90;;;;;;5070350;28;20067;-69
2023/01/23 00:29:35;;;;;;;12.88;7.13;;;2.80;99.90;;;;;;5070708;28;20044;-69
2023/01/23 00:32:01;;;;;;;12.93;7.10;;;2.80;99.90;;;;;;5070470;28;20135;-69
2023/01/23 00:34:27;;;;;;;16.17;7.82;;;2.80;99.90;;;;;;5069760;28;20041;-69
2023/01/23 00:36:52;;;;;;;13.65;6.97;;;2.80;99.90;;;;;;5070493;28;20412;-69
2023/01/23 00:39:21;;;;;;;12.75;6.90;;;2.90;99.90;;;;;;5071721;28;20036;-69
2023/01/23 00:41:47;;;;;;;10.40;6.75;;;2.90;99.90;;;;;;5074561;28;20055;-69
2023/01/23 00:44:14;;;;;;;17.23;7.45;;;2.90;99.90;;;;;;5073658;28;20139;-69
2023/01/23 00:46:39;;;;;;;11.13;6.88;;;2.90;99.90;;;;;;5074311;28;20033;-69
2023/01/23 00:49:06;;;;;;;17.23;6.85;;;2.90;99.90;;;;;;5074454;28;20040;-69
2023/01/23 00:51:31;;;;;;;15.68;7.32;;;2.90;99.90;;;;;;5074521;28;20033;-69
2023/01/23 00:53:57;;;;;;;11.68;6.43;;;2.90;99.90;;;;;;5073143;28;20043;-68
2023/01/23 00:56:23;;;;;;;12.10;6.95;;;2.90;99.90;;;;;;5074277;28;20067;-69
2023/01/23 00:58:48;;;;;;;15.93;7.30;;;2.90;99.90;;;;;;5074229;28;20040;-69
2023/01/23 01:01:15;;;;;;;13.68;6.70;;;2.90;99.90;;;;;;5074086;28;20400;-69
2023/01/23 01:03:41;;;;;;;11.73;6.05;;;2.90;99.90;;;;;;5073864;28;20037;-69
2023/01/23 01:06:07;;;;;;;11.95;6.75;;;2.90;99.90;;;;;;5073586;28;20411;-69
2023/01/23 01:08:33;;;;;;;16.10;6.90;;;2.90;99.90;;;;;;5074115;28;20044;-69
2023/01/23 01:10:59;;;;;;;16.65;7.45;;;2.90;99.90;;;;;;5074025;28;20044;-69
2023/01/23 01:13:25;;;;;;;10.43;6.70;;;2.90;99.90;;;;;;5073849;28;20068;-69
2023/01/23 01:15:52;;;;;;;10.00;6.82;;;2.90;99.90;;;;;;5072996;28;20045;-69
2023/01/23 01:18:19;;;;;;;15.95;7.40;;;2.90;99.90;;;;;;5073951;28;20512;-69
2023/01/23 01:20:45;;;;;;;14.70;7.38;;;2.90;99.90;;;;;;5073922;28;20040;-69
2023/01/23 01:23:11;;;;;;;14.55;7.00;;;2.90;99.90;;;;;;5073489;28;20036;-69
2023/01/23 01:25:37;;;;;;;11.82;6.57;;;2.90;99.90;;;;;;5072892;28;20044;-69
2023/01/23 01:28:03;;;;;;;12.45;7.20;;;2.90;99.90;;;;;;5073533;28;20066;-69
2023/01/23 01:30:29;;;;;;;11.73;6.90;;;2.90;99.90;;;;;;5073635;28;20041;-69
2023/01/23 01:32:55;;;;;;;13.60;8.23;;;2.90;99.90;;;;;;5072016;28;20056;-69
2023/01/23 01:35:22;;;;;;;16.48;7.75;;;3.00;99.90;;;;;;5072532;28;20050;-69
2023/01/23 01:37:47;;;;;;;14.30;7.07;;;3.00;99.90;;;;;;5073238;28;20032;-69
2023/01/23 01:40:19;;;;;;;11.73;7.05;;;3.00;99.90;;;;;;5073330;28;20122;-69
2023/01/23 01:42:59;;;;;;;12.77;6.95;;;3.00;99.90;;;;;;5073263;28;20064;-69
2023/01/23 01:46:02;;;;;;;12.27;7.07;;;3.00;99.90;;;;;;5072673;28;20068;-69
2023/01/23 01:48:51;;;;;;;15.75;6.93;;;3.00;99.90;;;;;;5073084;28;20100;-69
2023/01/23 01:51:30;;;;;;;17.83;7.85;;;3.00;99.90;;;;;;5060265;28;20048;-69
2023/01/23 01:54:08;;;;;;;11.23;6.97;;;3.00;99.90;;;;;;5070837;28;20056;-69
2023/01/23 01:56:40;;;;;;;18.30;7.32;;;3.00;99.90;;;;;;5072921;28;20061;-69
2023/01/23 01:59:07;;;;;;;12.88;7.05;;;3.00;99.90;;;;;;5071593;28;20044;-69
2023/01/23 02:01:33;;;;;;;13.02;7.25;;;3.00;99.90;;;;;;5073186;28;20040;-69
2023/01/23 02:04:00;;;;;;;18.05;7.28;;;3.00;99.90;;;;;;5070702;28;20052;-69
2023/01/23 02:06:26;;;;;;;15.93;6.78;;;3.00;99.90;;;;;;5071431;28;20051;-69
2023/01/23 02:09:14;;;;;;;13.52;7.28;;;3.00;99.90;;;;;;5072760;28;20409;-69
2023/01/23 02:11:40;;;;;;;16.25;7.78;;;3.00;99.90;;;;;;5071362;28;20119;-69
2023/01/23 02:14:06;;;;;;;14.32;7.70;;;3.00;99.90;;;;;;5071773;28;20595;-69
2023/01/23 02:16:38;;;;;;;13.77;7.28;;;3.00;99.90;;;;;;5071141;28;20036;-69
2023/01/23 02:19:18;;;;;;;18.70;9.40;;;3.00;99.90;;;;;;5071320;28;20089;-69
2023/01/23 02:21:47;;;;;;;13.30;7.68;;;3.10;99.90;;;;;;5071060;28;20049;-69
2023/01/23 02:24:16;;;;;;;13.57;7.40;;;3.10;99.90;;;;;;5071984;28;20086;-69
2023/01/23 02:26:44;;;;;;;15.52;7.85;;;3.10;99.90;;;;;;5072477;28;20037;-69
2023/01/23 02:29:11;;;;;;;13.90;7.25;;;3.00;99.90;;;;;;5072642;28;20401;-69
2023/01/23 02:31:37;;;;;;;15.15;7.97;;;3.00;99.90;;;;;;5072252;28;20040;-69
2023/01/23 02:34:04;;;;;;;17.67;7.75;;;3.00;99.90;;;;;;5071642;28;20048;-69
2023/01/23 02:36:32;;;;;;;18.98;9.23;;;3.10;99.90;;;;;;5072324;28;20258;-69
2023/01/23 02:39:12;;;;;;;14.00;7.18;;;3.10;99.90;;;;;;5072431;28;20170;-69
2023/01/23 02:41:44;;;;;;;13.70;6.82;;;3.10;99.90;;;;;;5071137;28;20041;-69
2023/01/23 02:44:17;;;;;;;14.00;8.10;;;3.10;99.90;;;;;;5071651;28;20119;-69
2023/01/23 02:46:43;;;;;;;14.73;6.85;;;3.10;99.90;;;;;;5071046;28;20115;-69
2023/01/23 02:49:09;;;;;;;17.45;7.95;;;3.10;99.90;;;;;;5072178;28;20062;-69
2023/01/23 02:51:35;;;;;;;15.57;8.15;;;3.10;99.90;;;;;;5072099;28;20405;-69
2023/01/23 02:54:01;;;;;;;13.73;7.03;;;3.10;99.90;;;;;;5069634;28;20056;-69
2023/01/23 02:56:26;;;;;;;14.75;7.95;;;3.10;99.90;;;;;;5071811;28;20059;-69
2023/01/23 03:01:36;;;;;;;13.27;7.55;;;3.10;99.90;;;;;;5070223;28;20045;-69
2023/01/23 03:04:05;;;;;;;17.55;7.38;;;3.10;99.90;;;;;;5071136;28;20488;-69
2023/01/23 03:06:35;;;;;;;12.70;7.72;;;3.10;99.90;;;;;;5070003;28;20051;-69
2023/01/23 03:09:07;;;;;;;11.73;8.05;;;3.10;99.90;;;;;;5071432;28;20052;-69
2023/01/23 03:11:33;;;;;;;17.25;8.25;;;3.10;99.90;;;;;;5070189;28;20081;-69
2023/01/23 03:13:59;;;;;;;16.83;8.45;;;3.10;99.90;;;;;;5069126;28;20055;-69
2023/01/23 03:16:25;;;;;;;17.33;8.05;;;3.10;99.90;;;;;;5070034;28;20127;-69
2023/01/23 03:18:50;;;;;;;12.20;7.07;;;3.10;99.90;;;;;;5070116;28;20067;-69
2023/01/23 03:21:16;;;;;;;17.00;7.38;;;3.10;99.90;;;;;;5071366;28;20374;-69
2023/01/23 03:23:43;;;;;;;12.68;6.57;;;3.10;99.90;;;;;;5070829;28;20032;-69
2023/01/23 03:26:10;;;;;;;13.73;7.72;;;3.10;99.90;;;;;;5070712;28;20051;-69
2023/01/23 03:31:20;;;;;;;13.18;7.22;;;3.10;99.90;;;;;;5071256;28;20079;-69
2023/01/23 03:33:45;;;;;;;15.60;7.80;;;3.10;99.90;;;;;;5070783;28;20126;-69
2023/01/23 03:36:11;;;;;;;12.25;7.15;;;3.10;99.90;;;;;;5070962;28;20086;-69
2023/01/23 03:38:37;;;;;;;13.43;7.75;;;3.10;99.90;;;;;;5071384;28;20032;-69
2023/01/23 03:43:48;;;;;;;15.20;8.27;;;3.10;99.90;;;;;;5070422;28;20065;-68
2023/01/23 03:46:14;;;;;;;16.92;8.65;;;3.10;99.90;;;;;;5069566;28;20155;-69
2023/01/23 03:48:39;;;;;;;13.35;8.20;;;3.10;99.90;;;;;;5071243;28;20040;-69
2023/01/23 03:51:06;;;;;;;14.73;8.13;;;3.10;99.90;;;;;;5069647;28;20051;-69
2023/01/23 03:53:31;;;;;;;12.70;7.70;;;3.10;99.90;;;;;;5071092;28;20047;-69
2023/01/23 03:55:57;;;;;;;14.70;7.30;;;3.10;99.90;;;;;;5070264;28;20032;-69
2023/01/23 03:58:23;;;;;;;16.50;9.15;;;3.10;99.90;;;;;;5069526;28;20045;-69
2023/01/23 04:00:48;;;;;;;16.98;8.98;;;3.10;99.90;;;;;;5069792;28;20089;-69
2023/01/23 04:03:14;;;;;;;15.95;8.73;;;3.10;99.90;;;;;;5070698;28;20041;-69
2023/01/23 04:05:39;;;;;;;17.17;9.00;;;3.10;99.90;;;;;;5069939;28;20040;-70
2023/01/23 04:08:05;;;;;;;21.02;9.77;;;3.10;99.90;;;;;;5070891;28;20522;-69
2023/01/23 04:10:31;;;;;;;14.90;8.55;;;3.10;99.90;;;;;;5070503;28;20037;-69
2023/01/23 04:12:56;;;;;;;12.65;7.85;;;3.10;99.90;;;;;;5070815;28;20033;-69
2023/01/23 04:15:22;;;;;;;16.73;8.85;;;3.10;99.90;;;;;;5073343;28;20068;-69
2023/01/23 04:17:48;;;;;;;17.25;9.32;;;3.10;99.90;;;;;;5075038;28;20048;-69
2023/01/23 04:20:14;;;;;;;10.70;7.05;;;3.10;99.90;;;;;;5074690;28;20028;-69
2023/01/23 04:22:39;;;;;;;20.45;9.30;;;3.10;99.90;;;;;;5075132;28;20115;-69
2023/01/23 04:25:06;;;;;;;17.48;8.10;;;3.10;99.90;;;;;;5072606;28;20131;-69
2023/01/23 04:27:31;;;;;;;13.98;8.07;;;3.10;99.90;;;;;;5074959;28;20045;-69
2023/01/23 04:29:57;;;;;;;14.60;8.23;;;3.20;99.90;;;;;;5073336;28;20052;-69
2023/01/23 04:32:24;;;;;;;16.25;9.07;;;3.10;99.90;;;;;;5074577;28;20064;-69
2023/01/23 04:34:50;;;;;;;14.95;8.13;;;3.10;99.90;;;;;;5073812;28;20044;-69
2023/01/23 04:37:16;;;;;;;23.05;9.07;;;3.10;99.90;;;;;;5074785;28;20128;-69
2023/01/23 04:39:41;;;;;;;16.40;8.90;;;3.10;99.90;;;;;;5073205;28;20044;-69
2023/01/23 04:42:07;;;;;;;14.60;8.48;;;3.10;99.90;;;;;;5074546;28;20082;-69
2023/01/23 04:44:32;;;;;;;14.90;8.02;;;3.10;99.90;;;;;;5073630;28;20048;-69
2023/01/23 04:46:59;;;;;;;15.30;8.20;;;3.10;99.90;;;;;;5074123;28;20079;-69
2023/01/23 04:49:24;;;;;;;16.75;7.95;;;3.10;99.90;;;;;;5074450;28;20047;-69
2023/01/23 04:51:51;;;;;;;19.85;9.00;;;3.10;99.90;;;;;;5074068;28;20472;-69
2023/01/23 04:54:17;;;;;;;12.70;8.43;;;3.20;99.90;;;;;;5073559;28;20083;-69
2023/01/23 04:56:43;;;;;;;17.67;8.38;;;3.10;99.90;;;;;;5074208;28;20128;-69
2023/01/23 04:59:10;;;;;;;21.25;8.43;;;3.20;99.90;;;;;;5074391;28;20041;-69
2023/01/23 05:01:36;;;;;;;16.88;8.48;;;3.10;99.90;;;;;;5074201;28;20102;-69
2023/01/23 05:04:02;;;;;;;19.30;8.40;;;3.10;99.90;;;;;;5073199;28;20041;-69
2023/01/23 05:06:28;;;;;;;16.77;8.50;;;3.10;99.90;;;;;;5074218;28;20429;-69
2023/01/23 05:08:54;;;;;;;16.58;9.15;;;3.10;99.90;;;;;;5073945;28;20132;-69
2023/01/23 05:11:20;;;;;;;16.77;9.50;;;3.10;99.90;;;;;;5073926;28;20036;-69
2023/01/23 05:13:45;;;;;;;14.93;8.57;;;3.10;99.90;;;;;;5073090;28;20048;-68
2023/01/23 05:16:11;;;;;;;14.48;8.35;;;3.10;99.90;;;;;;5073687;28;20064;-69
2023/01/23 05:18:36;;;;;;;18.45;8.68;;;3.10;99.90;;;;;;5073585;28;20041;-69
2023/01/23 05:21:02;;;;;;;16.15;9.05;;;3.10;99.90;;;;;;5073866;28;20036;-69
2023/01/23 05:23:28;;;;;;;15.95;8.63;;;3.10;99.90;;;;;;5073500;28;20515;-69
2023/01/23 05:25:53;;;;;;;13.90;8.65;;;3.10;99.90;;;;;;5071692;28;20044;-69
2023/01/23 05:28:19;;;;;;;14.65;8.75;;;3.10;99.90;;;;;;5073631;28;20044;-69
2023/01/23 05:30:45;;;;;;;17.20;8.60;;;3.10;99.90;;;;;;5073298;28;20044;-69
2023/01/23 05:33:11;;;;;;;13.98;9.10;;;3.10;99.90;;;;;;5073425;28;20094;-69
2023/01/23 05:35:38;;;;;;;16.02;8.77;;;3.10;99.90;;;;;;5072650;28;20116;-69
2023/01/23 05:38:04;;;;;;;19.52;9.05;;;3.10;99.90;;;;;;5073430;28;20431;-69
2023/01/23 05:40:29;;;;;;;17.90;9.05;;;3.00;99.90;;;;;;5073502;28;20044;-69
2023/01/23 05:42:55;;;;;;;21.30;9.70;;;3.00;99.90;;;;;;5073257;28;20586;-69
2023/01/23 05:45:21;;;;;;;15.55;8.93;;;3.10;99.90;;;;;;5072252;28;20098;-69
2023/01/23 05:47:46;;;;;;;15.80;9.23;;;3.10;99.90;;;;;;5073413;28;20511;-69
2023/01/23 05:50:15;;;;;;;13.90;8.98;;;3.10;99.90;;;;;;5073175;28;20047;-69
2023/01/23 05:52:41;;;;;;;15.43;9.40;;;3.10;99.90;;;;;;5073306;28;20028;-69
2023/01/23 05:55:06;;;;;;;19.27;7.97;;;3.10;99.90;;;;;;5072241;28;20489;-69
2023/01/23 05:57:33;;;;;;;16.05;8.23;;;3.10;99.90;;;;;;5073001;28;20045;-69
2023/01/23 05:59:59;;;;;;;12.32;7.75;;;3.10;99.90;;;;;;5071801;28;20040;-69
2023/01/23 06:02:24;;;;;;;14.77;9.05;;;3.10;99.90;;;;;;5072876;28;20036;-69
2023/01/23 06:04:50;;;;;;;14.20;8.70;;;3.10;99.90;;;;;;5072344;28;20493;-69
2023/01/23 06:07:17;;;;;;;15.50;8.25;;;3.10;99.90;;;;;;5071616;28;20037;-69
2023/01/23 06:09:43;;;;;;;12.68;7.65;;;3.10;99.90;;;;;;5066178;28;20048;-69
2023/01/23 06:12:09;;;;;;;16.95;8.23;;;3.10;99.90;;;;;;5061307;28;20044;-69
2023/01/23 06:14:35;;;;;;;14.20;9.15;;;3.10;99.90;;;;;;5059290;28;20120;-69
2023/01/23 06:17:01;;;;;;;16.95;8.52;;;3.10;99.90;;;;;;5062128;28;20107;-70
2023/01/23 06:19:27;;;;;;;14.05;8.27;;;3.10;99.90;;;;;;5063896;28;20037;-69
2023/01/23 06:21:53;;;;;;;12.93;8.27;;;3.10;99.90;;;;;;5053482;28;20044;-68
2023/01/23 06:24:18;;;;;;;20.23;8.43;;;3.00;99.90;;;;;;5051426;28;20107;-69
2023/01/23 06:26:44;;;;;;;15.48;8.48;;;3.00;99.90;;;;;;5052721;28;20045;-70
2023/01/23 06:29:09;;;;;;;14.98;8.52;;;3.00;99.90;;;;;;5052562;28;20432;-69
2023/01/23 06:31:35;;;;;;;16.67;8.23;;;3.00;99.90;;;;;;5051120;28;20045;-69
2023/01/23 06:34:01;;;;;;;16.05;8.43;;;3.00;99.90;;;;;;5051608;28;20041;-69
2023/01/23 06:36:27;;;;;;;12.13;7.95;;;3.00;99.90;;;;;;5051954;28;20120;-69
2023/01/23 06:38:52;;;;;;;18.48;8.65;;;3.00;99.90;;;;;;5052109;28;20037;-69
2023/01/23 06:41:18;;;;;;;15.48;8.93;;;3.10;99.90;;;;;;5052478;28;20041;-70
2023/01/23 06:43:43;;;;;;;12.05;8.52;;;3.00;99.90;;;;;;5051820;28;20041;-71
2023/01/23 06:46:10;;;;;;;11.57;8.07;;;3.10;99.90;;;;;;5050694;28;20444;-71
2023/01/23 06:48:36;;;;;;;12.48;8.02;;;3.10;99.90;;;;;;5050764;28;20048;-71
2023/01/23 06:51:02;;;;;;;18.02;8.55;;;3.10;99.90;;;;;;5052236;28;20087;-71
2023/01/23 06:53:28;;;;;;;15.13;8.43;;;3.10;99.90;;;;;;5050699;28;20551;-71
2023/01/23 06:56:02;;;;;;;17.90;8.77;;;3.10;99.90;;;;;;5049638;28;20040;-71
2023/01/23 06:58:28;;;;;;;12.32;7.85;;;3.10;99.90;;;;;;5051899;28;20115;-71
2023/01/23 07:00:53;;;;;;;18.55;9.77;;;3.00;99.90;;;;;;5051859;28;20049;-71
2023/01/23 07:03:20;;;;;;;15.82;8.30;;;3.00;99.90;;;;;;5050431;28;20491;-71
2023/01/23 07:05:45;;;;;;;15.50;9.00;;;3.10;99.90;;;;;;5050987;28;20037;-71
2023/01/23 07:08:11;;;;;;;19.10;8.50;;;3.10;99.90;;;;;;5051810;28;20045;-71
2023/01/23 07:10:37;;;;;;;15.25;8.55;;;3.10;99.90;;;;;;5050263;28;20116;-71
2023/01/23 07:13:05;;;;;;;14.95;8.32;;;3.10;99.90;;;;;;5051559;28;20055;-71
2023/01/23 07:15:31;;;;;;;15.60;9.43;;;3.00;99.90;;;;;;5050796;28;20099;-70
2023/01/23 07:17:56;;;;;;;18.88;9.05;;;3.00;99.90;;;;;;5051728;28;20429;-70
2023/01/23 07:20:26;;;;;;;13.10;8.32;;;3.00;99.90;;;;;;5050134;28;20535;-70
2023/01/23 07:22:52;;;;;;;13.07;8.70;;;3.10;99.90;;;;;;5050041;28;20045;-70
2023/01/23 07:25:18;;;;;;;16.88;8.60;;;3.10;99.90;;;;;;5050872;28;20405;-71
2023/01/23 07:27:43;;;;;;;12.93;8.65;;;3.10;99.90;;;;;;5051353;28;20045;-70
2023/01/23 07:30:10;;;;;;;14.68;7.70;;;3.10;99.90;;;;;;5050286;28;20609;-71
2023/01/23 07:32:35;;;;;;;14.48;8.73;;;3.10;99.90;;;;;;5051031;28;20041;-70
2023/01/23 07:35:01;;;;;;;16.95;9.10;;;3.00;99.90;;;;;;5049791;28;20037;-70
2023/01/23 07:37:26;;;;;;;13.05;8.15;;;3.10;99.90;;;;;;5033071;28;20041;-70
2023/01/23 07:39:52;;;;;;;14.40;9.13;;;3.10;99.90;;;;;;5050009;28;20041;-71
2023/01/23 07:42:18;;;;;;;15.15;8.82;;;3.10;99.90;;;;;;5033103;28;20821;-70
2023/01/23 07:44:43;;;;;;;16.77;9.88;;;3.00;99.90;;;;;;5045250;28;20513;-70
2023/01/23 07:47:09;;;;;;;12.95;8.93;;;3.00;99.90;;;;;;5038871;28;20053;-71
2023/01/23 07:49:34;;;;;;;12.18;8.20;;;3.10;99.90;;;;;;5040108;28;20049;-71
2023/01/23 07:52:00;;;;;;;16.23;8.68;;;3.10;99.90;;;;;;5043880;28;20458;-70
2023/01/23 07:54:26;;;;;;;18.95;8.55;;;3.10;99.90;;;;;;5048762;28;20525;-70
2023/01/23 07:56:51;;;;;;;12.02;8.27;;;3.00;99.90;;;;;;5049257;28;20132;-70
2023/01/23 07:59:17;;;;;;;15.02;8.23;;;3.10;99.90;;;;;;5047358;28;20060;-70
2023/01/23 08:01:43;;;;;;;13.40;9.32;;;3.10;99.90;;;;;;5046179;28;20094;-71
2023/01/23 08:04:08;;;;;;;13.85;8.23;;;3.10;99.90;;;;;;5049941;28;20045;-71
2023/01/23 08:06:35;;;;;;;16.33;9.30;;;3.10;99.90;;;;;;5050565;28;20033;-71
2023/01/23 08:09:01;;;;;;;13.45;8.35;;;3.10;99.90;;;;;;5050923;28;20067;-70
2023/01/23 08:11:26;;;;;;;16.00;8.93;;;3.10;99.90;;;;;;5050971;28;20033;-69
2023/01/23 08:13:52;;;;;;;19.80;9.43;;;3.10;99.90;;;;;;5049812;28;20072;-69
2023/01/23 08:16:18;;;;;;;11.23;8.38;;;3.10;99.90;;;;;;5050776;28;20072;-69
2023/01/23 08:18:43;;;;;;;15.35;9.48;;;3.10;99.90;;;;;;5050676;28;20397;-69
2023/01/23 08:21:09;;;;;;;16.30;9.05;;;3.10;99.90;;;;;;5049811;28;20091;-70
2023/01/23 08:23:35;;;;;;;14.43;8.48;;;3.10;99.90;;;;;;5050892;28;20059;-69
2023/01/23 08:26:04;;;;;;;16.00;9.15;;;3.10;99.90;;;;;;5048524;28;20045;-69
2023/01/23 08:28:30;;;;;;;15.15;8.38;;;3.10;99.90;;;;;;5050763;28;20057;-69
2023/01/23 08:31:00;;;;;;;14.98;8.57;;;3.10;99.90;;;;;;5050407;28;20115;-69
2023/01/23 08:33:25;;;;;;;16.55;9.15;;;3.10;99.90;;;;;;5049052;28;20041;-69
2023/01/23 08:35:53;;;;;;;16.85;9.35;;;3.20;99.90;;;;;;5049839;28;20094;-69
2023/01/23 08:38:19;;;;;;;19.65;9.50;;;3.20;99.90;;;;;;5049557;28;20072;-69
2023/01/23 08:40:49;;;;;;;14.60;9.00;;;3.20;99.90;;;;;;5050630;28;20497;-69
2023/01/23 08:43:16;;;;;;;15.23;9.20;;;3.20;99.90;;;;;;5050601;28;20124;-69
2023/01/23 08:45:48;;;;;;;17.98;8.65;;;3.20;99.90;;;;;;5049784;28;20040;-69
2023/01/23 08:48:13;;;;;;;12.60;8.10;;;3.20;99.90;;;;;;5050700;28;20048;-69
2023/01/23 08:50:39;;;;;;;17.23;8.23;;;3.20;99.90;;;;;;5050674;28;20029;-68
2023/01/23 08:53:04;;;;;;;14.68;8.18;;;3.30;99.90;;;;;;5050450;28;20162;-68
2023/01/23 08:55:31;;;;;;;14.95;8.73;;;3.30;99.90;;;;;;5049533;28;20505;-68
2023/01/23 08:57:58;;;;;;;14.77;8.45;;;3.30;99.90;;;;;;5050202;28;20544;-68
2023/01/23 09:00:24;;;;;;;15.88;9.07;;;3.30;99.90;;;;;;5052073;28;20076;-69
2023/01/23 09:02:50;;;;;;;20.23;8.95;;;3.30;99.90;;;;;;5053917;28;20037;-69
2023/01/23 09:05:16;;;;;;;15.75;9.60;;;3.30;99.90;;;;;;5053558;28;20045;-68
2023/01/23 09:07:42;;;;;;;17.77;8.52;;;3.40;99.90;;;;;;5054145;28;20059;-69
2023/01/23 09:10:08;;;;;;;16.33;8.82;;;3.40;99.90;;;;;;5054353;28;20037;-69
2023/01/23 09:12:34;;;;;;;13.30;7.88;;;3.50;99.90;;;;;;5052538;28;20045;-68
2023/01/23 09:15:00;;;;;;;14.05;7.53;;;3.50;99.90;;;;;;5053130;28;20056;-68
2023/01/23 09:17:26;;;;;;;12.68;7.78;;;3.50;99.90;;;;;;5054077;28;20037;-68
2023/01/23 09:19:52;;;;;;;14.63;7.72;;;3.50;99.90;;;;;;5053872;28;20029;-68
2023/01/23 09:22:19;;;;;;;13.60;7.47;;;3.50;99.90;;;;;;5052194;28;20040;-68
2023/01/23 09:24:44;;;;;;;15.52;6.97;;;3.50;99.90;;;;;;5052648;28;20486;-68
2023/01/23 09:27:10;;;;;;;14.07;7.45;;;3.50;99.90;;;;;;5053314;28;20098;-68
2023/01/23 09:29:35;;;;;;;14.00;7.95;;;3.50;99.90;;;;;;5053386;28;20051;-69
2023/01/23 09:32:02;;;;;;;15.48;7.45;;;3.50;99.90;;;;;;5053408;28;20041;-69
2023/01/23 09:34:28;;;;;;;12.73;7.75;;;3.50;99.90;;;;;;5052239;28;20041;-69
2023/01/23 09:36:53;;;;;;;12.23;7.57;;;3.50;99.90;;;;;;5059536;28;20502;-69
2023/01/23 09:39:19;;;;;;;11.90;6.65;;;3.50;99.90;;;;;;5062970;28;20033;-69
2023/01/23 09:41:46;;;;;;;13.15;8.77;;;3.50;99.90;;;;;;5064281;28;20037;-69
2023/01/23 09:44:22;;;;;;;13.32;7.22;;;3.60;99.90;;;;;;5069148;28;20504;-69
2023/01/23 09:46:54;;;;;;;12.77;8.00;;;3.60;99.90;;;;;;5073339;28;20404;-69
2023/01/23 09:49:32;;;;;;;11.77;6.85;;;3.60;99.90;;;;;;5072155;28;20037;-69
2023/01/23 09:52:06;;;;;;;9.75;6.65;;;3.60;99.90;;;;;;5071707;28;20051;-69
2023/01/23 09:54:39;;;;;;;12.60;7.32;;;3.60;99.90;;;;;;5071276;28;20145;-69
2023/01/23 09:57:12;;;;;;;15.15;7.15;;;3.60;99.90;;;;;;5072769;28;20032;-70
2023/01/23 09:59:40;;;;;;;12.15;6.75;;;3.60;99.90;;;;;;5073207;28;20044;-69
2023/01/23 10:02:24;;;;;;;11.82;6.95;;;3.60;99.90;;;;;;5073048;28;20404;-69
2023/01/23 10:04:51;;;;;;;10.80;7.10;;;3.60;99.90;;;;;;5072376;28;20090;-69
2023/01/23 10:07:39;;;;;;;12.85;8.73;;;3.60;99.90;;;;;;5072721;28;20041;-69
2023/01/23 10:10:32;;;;;;;12.95;7.13;;;3.60;99.90;;;;;;5073066;28;20048;-68
2023/01/23 10:13:18;;;;;;;12.73;6.72;;;3.70;99.90;;;;;;5071795;28;20524;-68
2023/01/23 10:15:58;;;;;;;9.57;6.93;;;3.80;99.90;;;;;;5071715;28;20070;-68
2023/01/23 10:18:30;;;;;;;9.15;6.22;;;3.70;99.90;;;;;;5071326;28;20044;-69
2023/01/23 10:21:16;;;;;;;9.65;6.32;;;3.70;99.90;;;;;;5072882;28;20040;-68
2023/01/23 10:24:18;;;;;;;12.25;7.30;;;3.70;99.90;;;;;;5069216;28;20040;-67
2023/01/23 10:26:46;;;;;;;12.23;6.50;;;3.70;99.90;;;;;;5071007;28;20033;-67
2023/01/23 10:29:26;;;;;;;12.73;6.68;;;3.80;99.90;;;;;;5070731;28;20048;-67
2023/01/23 10:31:56;;;;;;;9.57;6.97;;;3.70;99.90;;;;;;5071732;28;20037;-68
2023/01/23 10:34:38;;;;;;;10.43;7.15;;;3.70;99.90;;;;;;5069197;28;20040;-68
2023/01/23 10:37:21;;;;;;;11.15;6.60;;;3.80;99.90;;;;;;5072163;28;20111;-68
2023/01/23 10:40:14;;;;;;;9.93;6.55;;;3.80;99.90;;;;;;5071753;28;20107;-68
2023/01/23 10:42:40;;;;;;;11.00;7.03;;;3.80;99.90;;;;;;5071113;28;20045;-68
2023/01/23 10:45:17;;;;;;;11.10;6.55;;;3.80;99.90;;;;;;5071398;28;20081;-68
2023/01/23 10:47:45;;;;;;;12.45;6.90;;;3.80;99.90;;;;;;5071133;28;20498;-68
2023/01/23 10:50:12;;;;;;;9.98;7.45;;;3.80;99.90;;;;;;5072011;28;20036;-68
2023/01/23 10:52:41;;;;;;;11.63;7.20;;;3.80;99.90;;;;;;5069838;28;20079;-68
2023/01/23 10:55:28;;;;;;;14.18;7.88;;;3.80;99.90;;;;;;5067786;28;20037;-68
2023/01/23 10:57:56;;;;;;;13.02;7.35;;;3.80;99.90;;;;;;5072125;28;20142;-68
2023/01/23 11:00:38;;;;;;;10.20;7.22;;;3.80;99.90;;;;;;5071893;28;20397;-68
2023/01/23 11:03:19;;;;;;;11.77;6.82;;;3.80;99.90;;;;;;5071874;28;20417;-68
2023/01/23 11:05:54;;;;;;;11.60;7.80;;;3.90;99.90;;;;;;5065893;28;20066;-68
2023/01/23 11:08:26;;;;;;;12.40;7.47;;;3.80;99.90;;;;;;5071870;28;20107;-68
2023/01/23 11:10:53;;;;;;;;;;;3.80;99.90;;;;;;5070933;28;20400;-68
2023/01/23 11:13:28;;;;;;;12.35;6.72;;;3.90;99.90;;;;;;5071598;28;20007;-68
2023/01/23 11:15:54;;;;;;;9.75;6.85;;;3.90;99.90;;;;;;5070621;28;20116;-68
2023/01/23 11:18:32;;;;;;;12.77;7.93;;;3.90;99.90;;;;;;5071645;28;20032;-68
2023/01/23 11:20:59;;;;;;;9.32;6.72;;;3.90;99.90;;;;;;5071613;28;20115;-68
2023/01/23 11:23:25;;;;;;;13.25;6.78;;;3.90;99.90;;;;;;5071370;28;20037;-68
2023/01/23 11:25:55;;;;;;;13.00;6.97;;;3.90;99.90;;;;;;5070857;28;20393;-68
2023/01/23 11:28:33;;;;;;;8.73;6.82;;;3.90;99.90;;;;;;5071339;28;20119;-68
2023/01/23 11:31:15;;;;;;;11.82;7.38;;;3.90;99.90;;;;;;5071136;28;20055;-68
2023/01/23 11:33:55;;;;;;;15.05;7.95;;;3.90;99.90;;;;;;5071062;28;20080;-68
2023/01/23 11:36:47;;;;;;;12.43;7.70;;;3.90;99.90;;;;;;5071392;28;20044;-68
2023/01/23 11:39:33;;;;;;;12.35;7.97;;;4.00;99.90;;;;;;5071080;28;20044;-68
2023/01/23 11:41:59;;;;;;;11.80;6.93;;;3.90;99.90;;;;;;5071283;28;20457;-68
2023/01/23 11:44:24;;;;;;;11.00;7.35;;;3.90;99.90;;;;;;5070463;28;20127;-68
2023/01/23 11:47:08;;;;;;;11.30;7.05;;;4.00;99.90;;;;;;5070986;28;20043;-68
2023/01/23 11:49:45;;;;;;;13.05;7.90;;;4.00;99.90;;;;;;5062800;28;20040;-68
2023/01/23 11:52:32;;;;;;;12.38;7.03;;;4.00;99.90;;;;;;5053891;28;20048;-68
2023/01/23 11:54:57;;;;;;;16.98;7.60;;;4.00;99.90;;;;;;5050172;28;20128;-68
2023/01/23 11:57:47;;;;;;;12.18;6.85;;;4.00;99.90;;;;;;5051218;28;20120;-68
2023/01/23 12:00:33;;;;;;;15.02;7.85;;;4.00;99.90;;;;;;5050955;28;20037;-68
2023/01/23 12:03:04;;;;;;;13.43;7.47;;;4.00;99.90;;;;;;5054362;28;20051;-69
2023/01/23 12:05:58;;;;;;;14.30;7.97;;;4.00;99.90;;;;;;5059204;28;20067;-68
2023/01/23 12:08:43;;;;;;;12.07;7.72;;;4.10;99.90;;;;;;5061585;28;20044;-68
2023/01/23 12:11:15;;;;;;;12.73;7.28;;;4.10;99.90;;;;;;5059807;28;20439;-68
2023/01/23 12:13:46;;;;;;;11.98;7.35;;;4.10;99.90;;;;;;5050388;28;20055;-69
2023/01/23 12:16:24;;;;;;;10.15;7.38;;;4.10;99.90;;;;;;5054534;28;20080;-69
2023/01/23 12:19:02;;;;;;;11.38;7.65;;;4.10;99.90;;;;;;5061958;28;20128;-68
2023/01/23 12:21:55;;;;;;;14.23;7.15;;;4.10;99.90;;;;;;5060860;28;20147;-68
2023/01/23 12:24:36;;;;;;;11.10;7.53;;;4.10;99.90;;;;;;5059918;28;20036;-68
2023/01/23 12:27:33;;;;;;;11.02;7.15;;;4.10;99.90;;;;;;5060353;28;20029;-68
2023/01/23 12:30:29;;;;;;;12.13;7.85;;;4.10;99.90;;;;;;5058515;28;20041;-68
2023/01/23 12:33:13;;;;;;;12.43;6.93;;;4.10;99.90;;;;;;5065310;28;20461;-70
2023/01/23 12:36:03;;;;;;;11.10;7.00;;;4.20;99.90;;;;;;5069738;28;20098;-69
2023/01/23 12:38:55;;;;;;;14.68;7.72;;;4.20;99.90;;;;;;5074077;28;20086;-69
2023/01/23 12:41:29;;;;;;;10.82;7.40;;;4.20;99.90;;;;;;5070845;28;20112;-69
2023/01/23 12:44:00;;;;;;;10.95;7.13;;;4.20;99.90;;;;;;5065298;28;20382;-68
2023/01/23 12:46:36;;;;;;;13.25;7.00;;;4.20;99.90;;;;;;5052781;28;20052;-68
2023/01/23 12:49:24;;;;;;;11.95;7.70;;;4.20;99.90;;;;;;5061653;28;20511;-68
2023/01/23 12:51:58;;;;;;;12.57;8.32;;;4.30;99.90;;;;;;5070963;28;20523;-69
2023/01/23 12:54:37;;;;;;;18.77;10.05;;;4.30;99.90;;;;;;5073167;28;20055;-68
2023/01/23 12:57:06;;;;;;;13.32;8.15;;;4.30;99.90;;;;;;5071125;28;20041;-69
2023/01/23 13:00:05;;;;;;;13.82;7.88;;;4.30;99.90;;;;;;5070924;28;20032;-68
2023/01/23 13:02:46;;;;;;;15.48;8.77;;;4.30;99.90;;;;;;5073489;28;20040;-69
2023/01/23 13:05:19;;;;;;;13.88;7.70;;;4.30;99.90;;;;;;5072915;28;20044;-68
2023/01/23 13:08:23;;;;;;;14.70;8.07;;;4.40;99.90;;;;;;5073626;28;20040;-68